Time;durP1;ratioP1;P1;durP2;ratioP2;P2;SDS_P1;SDS_P2;PMS_P1;PMS_P2;Temp;Humidity;BMP_temperature;BMP_pressure;BME280_temperature;BME280_humidity;BME280_pressure;Samples;Min_cycle;Max_cycle;Signal;HPM_P1;HPM_P2
2022/05/23 00:00:23;;;;;;;2.80;1.67;;;19.30;76.20;;;19.64;52.58;100193.66;5140664;28;20055;-72
2022/05/23 00:02:55;;;;;;;3.20;1.67;;;19.30;76.30;;;19.58;52.70;100188.44;5147043;28;20122;-70
2022/05/23 00:05:28;;;;;;;3.97;1.58;;;19.30;76.50;;;19.57;52.58;100191.94;5164125;28;20055;-72
2022/05/23 00:08:02;;;;;;;2.58;1.42;;;19.20;76.50;;;19.56;52.76;100195.50;5137883;28;20492;-71
2022/05/23 00:10:34;;;;;;;2.88;1.60;;;19.20;76.80;;;19.56;52.78;100208.72;5143993;28;20051;-71
2022/05/23 00:13:07;;;;;;;2.20;1.27;;;19.20;77.00;;;19.58;53.23;100198.16;5144749;28;20058;-72
2022/05/23 00:15:39;;;;;;;2.55;1.35;;;19.20;77.50;;;19.54;53.19;100191.97;5136459;28;20051;-71
2022/05/23 00:18:11;;;;;;;1.85;1.45;;;19.10;77.60;;;19.49;53.16;100183.22;5136041;28;20421;-70
2022/05/23 00:20:43;;;;;;;2.08;1.52;;;19.10;77.60;;;19.44;53.18;100167.44;5136882;28;20424;-71
2022/05/23 00:23:16;;;;;;;3.22;1.85;;;19.00;77.60;;;19.37;53.20;100172.81;5135509;28;20054;-71
2022/05/23 00:25:48;;;;;;;1.85;1.40;;;19.00;77.60;;;19.35;53.22;100179.84;5138443;28;20057;-70
2022/05/23 00:28:20;;;;;;;1.70;1.30;;;19.00;77.80;;;19.34;53.79;100172.81;5130514;28;20046;-72
2022/05/23 00:30:52;;;;;;;2.38;1.23;;;19.00;78.50;;;19.31;54.16;100163.16;5137521;28;20077;-71
2022/05/23 00:36:14;;;;;;;1.77;1.35;;;18.90;79.60;;;19.19;54.94;100153.59;5159994;28;20423;-71
2022/05/23 00:38:47;;;;;;;1.95;1.65;;;18.80;80.10;;;19.12;55.66;100151.03;5167557;28;20046;-72
2022/05/23 00:44:26;;;;;;;1.65;1.50;;;18.70;81.60;;;18.99;56.52;100155.56;5165942;28;20042;-72
2022/05/23 00:47:00;;;;;;;1.65;1.50;;;18.60;82.40;;;18.95;56.74;100149.44;5156540;28;20050;-71
2022/05/23 00:49:34;;;;;;;;;;;18.50;82.90;;;18.92;57.23;100153.88;5167720;28;20141;-71
2022/05/23 00:52:11;;;;;;;2.05;1.35;;;18.50;83.60;;;18.89;57.46;100146.84;5166867;28;20013;-71
2022/05/23 00:54:47;;;;;;;1.63;1.40;;;18.50;84.10;;;18.86;57.91;100151.28;5167228;28;20061;-71
2022/05/23 00:57:23;;;;;;;2.05;1.40;;;18.50;85.00;;;18.85;57.78;100137.22;5167314;28;20076;-71
2022/05/23 00:59:56;;;;;;;1.92;1.33;;;18.50;85.20;;;18.84;57.41;100139.84;5166860;28;20050;-71
2022/05/23 01:02:30;;;;;;;3.28;1.60;;;18.40;85.00;;;18.81;57.28;100124.06;5167427;28;20046;-71
2022/05/23 01:05:03;;;;;;;4.63;2.10;;;18.40;85.00;;;18.81;57.39;100129.34;5167390;28;20414;-71
2022/05/23 01:07:35;;;;;;;1.92;1.42;;;18.40;85.20;;;18.83;57.47;100132.81;5167247;28;20050;-71
2022/05/23 01:10:10;;;;;;;1.70;1.15;;;18.40;85.60;;;18.84;58.16;100134.56;5166703;28;20410;-72
2022/05/23 01:12:43;;;;;;;1.23;1.08;;;18.40;86.70;;;18.84;58.51;100121.38;5166966;28;20050;-71
2022/05/23 01:15:21;;;;;;;1.75;1.65;;;18.50;87.50;;;18.85;59.03;100131.94;5167156;28;20392;-71
2022/05/23 01:17:53;;;;;;;1.60;1.30;;;18.40;88.40;;;18.85;59.20;100141.63;5166647;28;20051;-72
2022/05/23 01:20:28;;;;;;;1.48;1.13;;;18.50;89.00;;;18.84;58.45;100147.78;5166663;28;20050;-71
2022/05/23 01:23:15;;;;;;;2.53;1.30;;;18.40;88.40;;;18.83;57.92;100148.66;5166682;28;20074;-71
2022/05/23 01:25:49;;;;;;;1.48;1.23;;;18.40;88.00;;;18.83;57.76;100138.09;5167242;28;20050;-71
2022/05/23 01:28:21;;;;;;;1.35;1.13;;;18.40;88.10;;;18.83;58.05;100143.38;5166268;28;20050;-71
2022/05/23 01:30:53;;;;;;;2.03;1.20;;;18.40;88.50;;;18.83;58.38;100136.34;5166620;28;20384;-72
2022/05/23 01:33:25;;;;;;;2.00;1.63;;;18.40;89.10;;;18.81;58.59;100142.53;5166291;28;20046;-70
2022/05/23 01:35:59;;;;;;;2.45;1.30;;;18.40;89.70;;;18.81;58.81;100134.63;5166399;28;20048;-71
2022/05/23 01:38:31;;;;;;;1.33;1.23;;;18.40;90.10;;;18.79;59.12;100131.13;5166367;28;20049;-71
2022/05/23 01:41:04;;;;;;;2.75;1.77;;;18.40;90.40;;;18.76;58.59;100136.41;5166303;28;20050;-72
2022/05/23 01:43:36;;;;;;;2.95;1.70;;;18.30;90.10;;;18.75;58.47;100135.53;5166294;28;20482;-73
2022/05/23 01:46:09;;;;;;;3.13;1.60;;;18.30;90.10;;;18.75;58.42;100139.94;5166045;28;20078;-71
2022/05/23 01:48:41;;;;;;;2.00;1.40;;;18.40;90.30;;;18.75;59.38;100139.94;5166019;28;20042;-70
2022/05/23 01:51:13;;;;;;;2.55;1.40;;;18.30;90.90;;;18.74;60.50;100133.78;5166003;28;20057;-71
2022/05/23 01:53:45;;;;;;;3.63;1.90;;;18.30;91.60;;;18.70;60.71;100122.38;5166155;28;20356;-70
2022/05/23 01:56:18;;;;;;;2.63;1.50;;;18.30;91.90;;;18.68;59.77;100118.88;5166080;28;20500;-71
2022/05/23 02:01:40;;;;;;;1.55;1.42;;;18.30;91.60;;;18.66;59.39;100115.38;5165547;28;20515;-72
2022/05/23 02:04:12;;;;;;;2.35;1.52;;;18.30;91.50;;;18.65;58.89;100108.34;5165287;28;20057;-71
2022/05/23 02:06:44;;;;;;;5.05;1.98;;;18.30;91.30;;;18.65;58.63;100103.06;5165603;28;20055;-71
2022/05/23 02:09:16;;;;;;;4.25;1.50;;;18.20;91.20;;;18.63;58.71;100107.44;5165471;28;20056;-72
2022/05/23 02:11:49;;;;;;;1.50;1.40;;;18.20;91.30;;;18.61;58.60;100111.88;5165522;28;20456;-72
2022/05/23 02:14:22;;;;;;;2.25;1.63;;;18.20;91.30;;;18.61;59.01;100116.28;5166379;28;20073;-71
2022/05/23 02:16:54;;;;;;;3.28;1.70;;;18.20;91.40;;;18.61;59.19;100106.59;5165534;28;20050;-71
2022/05/23 02:19:26;;;;;;;1.48;1.33;;;18.20;91.70;;;18.61;59.29;100105.72;5165128;28;20418;-72
2022/05/23 02:21:58;;;;;;;3.00;1.50;;;18.20;91.90;;;18.60;59.34;100103.97;5165623;28;20050;-71
2022/05/23 02:24:30;;;;;;;2.45;1.48;;;18.20;91.90;;;18.60;59.17;100106.63;5165555;28;20326;-71
2022/05/23 02:27:04;;;;;;;1.80;1.23;;;18.20;92.10;;;18.61;59.69;100111.00;5165641;28;20491;-72
2022/05/23 02:29:37;;;;;;;2.25;1.70;;;18.20;92.30;;;18.59;59.31;100100.47;5165220;28;20065;-72
2022/05/23 02:32:10;;;;;;;2.33;1.50;;;18.20;92.20;;;18.56;59.19;100095.19;5158109;28;20180;-71
2022/05/23 02:34:42;;;;;;;3.03;1.90;;;18.20;92.10;;;18.52;59.11;100096.13;5160212;28;20046;-71
2022/05/23 02:37:15;;;;;;;3.92;2.15;;;18.10;92.00;;;18.50;59.12;100092.63;5165604;28;20483;-71
2022/05/23 02:39:47;;;;;;;2.33;1.58;;;18.10;92.10;;;18.47;59.08;100087.38;5165158;28;20050;-71
2022/05/23 02:42:20;;;;;;;3.60;1.70;;;18.10;92.10;;;18.43;59.21;100080.34;5165323;28;20134;-71
2022/05/23 02:44:52;;;;;;;2.47;1.92;;;18.10;92.20;;;18.38;59.53;100074.25;5165432;28;20407;-71
2022/05/23 02:47:24;;;;;;;2.88;1.55;;;18.10;92.40;;;18.35;59.66;100072.50;5165156;28;20050;-71
2022/05/23 02:49:57;;;;;;;3.15;1.92;;;18.00;92.50;;;18.29;60.03;100055.88;5164978;28;20046;-70
2022/05/23 02:52:29;;;;;;;6.22;3.13;;;18.00;92.70;;;18.25;60.11;100039.16;5164912;28;20053;-71
2022/05/23 02:55:01;;;;;;;3.58;1.77;;;18.00;92.80;;;18.16;60.35;100037.50;5165379;28;20050;-71
2022/05/23 02:57:34;;;;;;;2.80;1.95;;;17.90;92.90;;;18.16;60.43;100034.84;5165273;28;20104;-70
2022/05/23 03:00:09;;;;;;;2.88;2.00;;;17.90;93.10;;;18.15;60.51;100037.50;5164772;28;20047;-71
2022/05/23 03:05:33;;;;;;;3.30;1.80;;;17.90;93.30;;;18.17;60.65;100025.19;5165318;28;20053;-70
2022/05/23 03:08:06;;;;;;;3.80;2.00;;;17.80;93.50;;;18.16;60.55;100019.03;5165052;28;20065;-71
2022/05/23 03:10:38;;;;;;;3.47;2.00;;;17.80;93.50;;;18.17;60.46;100019.91;5164642;28;20053;-72
2022/05/23 03:13:13;;;;;;;3.20;2.00;;;17.90;93.50;;;18.17;60.31;100007.59;5165145;28;20535;-71
2022/05/23 03:15:45;;;;;;;3.10;2.03;;;17.80;93.40;;;18.10;60.30;99997.97;5169599;28;20133;-72
2022/05/23 03:18:17;;;;;;;4.38;1.95;;;17.80;93.40;;;18.11;60.33;100005.00;5168831;28;20054;-71
2022/05/23 03:20:57;;;;;;;4.07;1.88;;;17.80;93.50;;;18.15;60.43;100004.09;5169019;28;20046;-71
2022/05/23 03:29:13;;;;;;;2.00;1.60;;;17.80;93.50;;;18.20;60.27;100000.56;5168790;28;20047;-72
2022/05/23 03:31:45;;;;;;;3.58;1.98;;;17.80;93.60;;;18.23;60.49;100004.03;5168786;28;20046;-71
2022/05/23 03:34:17;;;;;;;3.08;2.05;;;17.80;93.70;;;18.20;60.25;99992.66;5168743;28;20112;-71
2022/05/23 03:36:49;;;;;;;4.65;2.00;;;17.80;93.60;;;18.17;60.21;99983.84;5168581;28;20057;-71
2022/05/23 03:39:21;;;;;;;3.72;1.90;;;17.80;93.70;;;18.15;60.30;99980.38;5168649;28;20049;-71
2022/05/23 03:41:54;;;;;;;3.60;1.70;;;17.80;93.70;;;18.13;60.21;99974.25;5168541;28;20054;-70
2022/05/23 03:44:28;;;;;;;2.92;1.83;;;17.80;93.70;;;18.13;60.23;99976.88;5168597;28;20312;-71
2022/05/23 03:47:00;;;;;;;4.22;1.75;;;17.80;93.80;;;18.14;60.12;99968.06;5168338;28;20057;-71
2022/05/23 03:49:33;;;;;;;2.08;1.73;;;17.80;93.70;;;18.17;60.17;99965.38;5168202;28;20555;-71
2022/05/23 03:52:06;;;;;;;2.47;1.50;;;17.80;93.70;;;18.17;59.98;99960.13;5168586;28;20053;-71
2022/05/23 03:54:38;;;;;;;3.42;1.77;;;17.80;93.70;;;18.19;60.19;99960.09;5168230;28;20072;-72
2022/05/23 03:57:10;;;;;;;3.40;1.83;;;17.80;93.80;;;18.21;59.92;99946.91;5168082;28;20057;-71
2022/05/23 03:59:45;;;;;;;2.95;1.95;;;17.80;93.70;;;18.24;60.09;99946.88;5167944;28;20046;-72
2022/05/23 04:02:17;;;;;;;3.13;1.95;;;17.90;93.80;;;18.24;59.91;99938.94;5168212;28;20050;-71
2022/05/23 04:04:49;;;;;;;3.38;1.50;;;17.90;94.00;;;18.27;59.71;99931.91;5168039;28;20455;-72
2022/05/23 04:07:21;;;;;;;3.13;1.83;;;17.90;93.70;;;18.27;59.82;99923.97;5167739;28;20133;-72
2022/05/23 04:09:54;;;;;;;2.92;1.80;;;17.90;93.60;;;18.26;59.77;99918.72;5167479;28;20057;-71
2022/05/23 04:12:26;;;;;;;2.13;1.60;;;17.90;93.70;;;18.27;59.67;99915.19;5168247;28;20140;-71
2022/05/23 04:15:00;;;;;;;3.03;2.28;;;17.90;93.60;;;18.26;59.96;99916.09;5168113;28;20057;-71
2022/05/23 04:17:32;;;;;;;3.13;1.45;;;17.90;93.60;;;18.28;59.71;99904.63;5167905;28;20053;-71
2022/05/23 04:20:08;;;;;;;2.47;1.48;;;17.90;93.70;;;18.29;59.75;99908.13;5167388;28;20050;-70
2022/05/23 04:22:40;;;;;;;1.63;1.52;;;17.90;93.70;;;18.31;59.63;99911.63;5167990;28;20065;-70
2022/05/23 04:25:12;;;;;;;2.95;1.77;;;17.90;93.70;;;18.31;59.56;99906.34;5167073;28;20416;-69
2022/05/23 04:27:45;;;;;;;2.28;1.63;;;17.90;93.60;;;18.32;59.56;99903.72;5167751;28;20414;-71
2022/05/23 04:30:18;;;;;;;3.00;1.90;;;18.00;93.70;;;18.31;59.60;99896.66;5167483;28;20047;-71
2022/05/23 04:35:39;;;;;;;4.15;1.70;;;18.00;93.60;;;18.33;59.58;99896.66;5167683;28;20132;-70
2022/05/23 04:38:12;;;;;;;2.33;2.00;;;18.00;93.60;;;18.37;59.54;99891.31;5167229;28;20418;-70
2022/05/23 04:40:45;;;;;;;2.35;1.70;;;18.00;93.60;;;18.42;59.52;99909.75;5167552;28;20050;-71
2022/05/23 04:43:17;;;;;;;1.85;1.30;;;18.10;93.60;;;18.48;59.28;99903.53;5167501;28;20052;-71
2022/05/23 04:45:51;;;;;;;3.85;1.98;;;18.10;93.60;;;18.50;59.19;99907.88;5167547;28;20050;-70
2022/05/23 04:51:12;;;;;;;3.38;1.90;;;18.10;93.50;;;18.55;59.39;99895.53;5167148;28;20050;-70
2022/05/23 04:53:44;;;;;;;3.20;2.03;;;18.20;93.70;;;18.54;59.56;99883.22;5167576;28;20053;-71
2022/05/23 04:56:16;;;;;;;2.15;1.88;;;18.20;93.70;;;18.54;59.55;99877.06;5167381;28;20562;-72
2022/05/23 04:58:48;;;;;;;4.20;1.95;;;18.20;93.70;;;18.44;59.83;99873.66;5167044;28;20076;-70
2022/05/23 05:01:22;;;;;;;4.25;1.92;;;18.10;93.70;;;18.41;59.93;99871.06;5167126;28;20046;-72
2022/05/23 05:03:55;;;;;;;2.72;1.98;;;18.10;93.80;;;18.41;60.07;99855.22;5166929;28;20073;-69
2022/05/23 05:06:27;;;;;;;2.60;1.67;;;18.10;93.90;;;18.36;60.05;99857.06;5166971;28;20061;-72
2022/05/23 05:08:59;;;;;;;3.42;1.92;;;18.10;93.80;;;18.35;60.30;99871.13;5166945;28;20483;-72
2022/05/23 05:11:31;;;;;;;3.40;2.10;;;18.10;94.00;;;18.37;60.10;99853.50;5180167;23;20042;-73
2022/05/23 05:14:05;;;;;;;2.58;1.60;;;18.10;94.00;;;18.43;60.13;99848.16;5173251;28;20054;-74
2022/05/23 05:16:39;;;;;;;2.83;1.80;;;18.10;94.00;;;18.47;60.24;99844.59;5166328;28;20054;-72
2022/05/23 05:19:11;;;;;;;3.78;1.80;;;18.20;94.10;;;18.51;59.91;99838.38;5166848;28;20483;-73
2022/05/23 05:21:43;;;;;;;3.00;2.00;;;18.20;93.90;;;18.58;59.68;99839.19;5166744;28;20061;-73
2022/05/23 05:24:15;;;;;;;3.63;1.80;;;18.20;93.80;;;18.61;59.56;99831.25;5166884;28;20054;-74
2022/05/23 05:26:47;;;;;;;1.85;1.75;;;18.30;94.00;;;18.68;59.36;99832.94;5166854;28;20074;-73
2022/05/23 05:29:19;;;;;;;2.85;1.63;;;18.30;93.70;;;18.76;59.48;99827.53;5165993;28;20069;-74
2022/05/23 05:31:56;;;;;;;2.45;1.70;;;18.40;93.80;;;18.79;59.13;99827.50;5166723;28;20046;-74
2022/05/23 05:34:34;;;;;;;2.60;1.70;;;18.40;93.60;;;18.76;59.07;99819.63;5166516;28;20054;-74
2022/05/23 05:37:14;;;;;;;3.97;1.90;;;18.40;93.50;;;18.76;59.31;99809.06;5166494;28;20050;-77
2022/05/23 05:39:47;;;;;;;4.75;2.00;;;18.40;93.60;;;18.73;59.55;99798.56;5166551;28;20047;-74
2022/05/23 05:42:26;;;;;;;2.35;1.85;;;18.40;93.60;;;18.70;59.64;99810.88;5166626;28;20403;-73
2022/05/23 05:45:03;;;;;;;3.70;2.20;;;18.40;93.60;;;18.72;59.65;99802.09;5166285;28;20046;-74
2022/05/23 05:47:40;;;;;;;3.75;2.40;;;18.40;93.70;;;18.74;59.79;99795.03;5166574;28;20057;-75
2022/05/23 05:50:17;;;;;;;3.33;1.75;;;18.40;93.80;;;18.78;59.56;99794.06;5166443;28;20050;-73
2022/05/23 05:52:50;;;;;;;2.22;1.75;;;18.40;94.00;;;18.88;59.46;99796.56;5166689;28;20080;-75
2022/05/23 05:55:22;;;;;;;1.92;1.63;;;18.50;93.70;;;19.00;59.32;99797.28;5166132;28;20482;-74
2022/05/23 05:57:54;;;;;;;4.95;2.30;;;18.60;93.70;;;19.05;59.04;99801.59;5165980;28;20068;-72
2022/05/23 06:00:26;;;;;;;2.72;1.70;;;18.70;93.50;;;19.12;58.71;99797.97;5165373;28;20053;-73
2022/05/23 06:03:00;;;;;;;4.05;2.10;;;18.70;93.30;;;19.12;57.87;99800.59;5165959;28;20125;-73
2022/05/23 06:11:23;;;;;;;3.17;1.92;;;18.80;92.90;;;19.11;57.83;99790.94;5165902;28;20054;-73
2022/05/23 06:11:26;;;;;;;3.53;2.08;;;18.90;92.80;;;19.32;58.12;99794.13;5123032;29;20066;-73
2022/05/23 06:14:00;;;;;;;2.85;1.92;;;18.90;92.90;;;19.34;57.95;99787.03;5157427;28;20055;-73
2022/05/23 06:16:35;;;;;;;1.50;1.40;;;18.90;92.70;;;19.38;57.77;99786.09;5165610;28;20051;-72
2022/05/23 06:19:08;;;;;;;4.90;1.95;;;19.00;92.70;;;19.37;57.54;99771.16;5165292;28;20050;-72
2022/05/23 06:21:40;;;;;;;2.70;1.70;;;19.00;92.50;;;19.39;57.68;99777.28;5165362;28;20046;-73
2022/05/23 06:24:12;;;;;;;2.70;1.73;;;19.00;92.60;;;19.47;57.64;99775.34;5165859;28;20052;-73
2022/05/23 06:26:45;;;;;;;3.05;1.88;;;19.10;92.60;;;19.55;57.51;99780.50;5164687;28;20105;-74
2022/05/23 06:29:17;;;;;;;3.53;1.75;;;19.10;92.60;;;19.63;57.46;99789.22;5165113;28;20058;-72
2022/05/23 06:31:49;;;;;;;3.42;1.88;;;19.20;92.60;;;19.67;56.89;99778.53;5165282;28;20057;-71
2022/05/23 06:34:23;;;;;;;3.30;2.03;;;19.20;92.30;;;19.69;56.72;99782.06;5165037;28;20043;-72
2022/05/23 06:36:55;;;;;;;3.33;1.77;;;19.30;92.10;;;19.73;56.35;99793.44;5164717;28;20488;-72
2022/05/23 06:39:27;;;;;;;3.80;1.90;;;19.30;91.80;;;19.83;56.57;99802.06;5164749;28;20054;-72
2022/05/23 06:41:59;;;;;;;2.03;1.40;;;19.40;91.90;;;20.03;56.10;99792.84;5172371;28;20509;-73
2022/05/23 06:44:31;;;;;;;4.72;2.00;;;19.50;91.80;;;20.21;55.80;99796.91;5177382;28;20088;-72
2022/05/23 06:47:04;;;;;;;4.43;1.75;;;19.60;91.60;;;20.42;55.08;99802.66;5184051;28;20046;-74
2022/05/23 06:49:38;;;;;;;4.20;1.92;;;19.80;91.30;;;20.67;54.26;99818.91;5164563;28;20082;-74
2022/05/23 06:52:10;;;;;;;3.70;2.08;;;20.00;91.00;;;20.89;53.18;99821.97;5164979;28;20057;-73
2022/05/23 06:54:42;;;;;;;3.95;1.80;;;20.20;90.30;;;21.03;52.50;99806.63;5163981;28;20056;-73
2022/05/23 06:57:15;;;;;;;3.35;1.90;;;20.40;89.60;;;21.19;52.19;99793.84;5162530;28;20085;-73
2022/05/23 06:59:47;;;;;;;2.30;1.60;;;20.50;88.80;;;21.42;51.85;99790.69;5164979;28;20054;-73
2022/05/23 07:02:19;;;;;;;3.40;1.80;;;20.70;89.20;;;21.34;52.00;99783.78;5165475;28;20054;-64
2022/05/23 07:13:22;;;;;;;5.68;2.03;;;20.70;86.50;;;21.03;52.02;99764.22;5165071;28;20053;-64
2022/05/23 07:15:57;;;;;;;3.97;1.80;;;20.60;86.20;;;20.96;52.45;99767.94;5165055;28;20053;-66
2022/05/23 07:18:30;;;;;;;4.47;2.00;;;20.60;86.80;;;20.86;52.78;99756.66;5164965;28;20055;-65
2022/05/23 07:21:06;;;;;;;2.78;1.60;;;20.50;87.10;;;20.85;53.07;99744.34;5164860;28;20082;-65
2022/05/23 07:23:39;;;;;;;3.13;1.65;;;20.40;87.30;;;20.82;53.18;99750.59;5164947;28;20062;-63
2022/05/23 07:26:15;;;;;;;3.80;1.83;;;20.40;87.50;;;20.83;52.90;99735.56;5165047;28;20514;-65
2022/05/23 07:28:49;;;;;;;4.50;1.83;;;20.40;87.30;;;20.86;53.07;99741.69;5164945;28;20060;-64
2022/05/23 07:31:21;;;;;;;2.88;2.00;;;20.40;87.50;;;20.93;53.09;99736.19;5165093;28;20424;-66
2022/05/23 07:33:53;;;;;;;7.03;2.08;;;20.50;87.60;;;20.85;53.32;99739.03;5165098;28;20057;-65
2022/05/23 07:36:27;;;;;;;3.53;1.90;;;20.50;87.90;;;20.91;53.83;99736.25;5164616;28;20085;-66
2022/05/23 07:38:59;;;;;;;3.03;1.80;;;20.50;88.40;;;20.97;53.92;99737.88;5164993;28;20057;-66
2022/05/23 07:41:32;;;;;;;3.30;1.83;;;20.50;88.80;;;20.95;54.56;99723.81;5164979;28;20495;-66
2022/05/23 07:44:04;;;;;;;5.03;2.30;;;20.50;89.30;;;20.88;54.47;99725.75;5165078;28;20086;-67
2022/05/23 07:46:37;;;;;;;3.42;2.10;;;20.50;89.20;;;20.86;55.13;99720.50;5164786;28;20057;-65
2022/05/23 07:49:10;;;;;;;3.25;2.00;;;20.50;89.90;;;20.86;55.06;99720.50;5165118;28;20054;-63
2022/05/23 07:51:43;;;;;;;3.45;1.90;;;20.50;90.00;;;20.91;55.17;99722.13;5164988;28;20052;-66
2022/05/23 08:02:47;;;;;;;2.85;1.90;;;20.60;90.00;;;21.16;53.67;99733.88;5183884;28;20057;-66
2022/05/23 08:05:19;;;;;;;4.60;1.92;;;20.70;88.90;;;21.14;53.58;99728.63;5188930;28;20049;-65
2022/05/23 08:07:53;;;;;;;5.53;2.20;;;20.70;88.60;;;21.13;53.85;99736.59;5188493;28;20049;-66
2022/05/23 08:10:26;;;;;;;3.97;2.10;;;20.70;88.50;;;21.16;53.99;99733.00;5188432;28;20539;-65
2022/05/23 08:12:59;;;;;;;6.53;2.20;;;20.70;88.70;;;21.22;54.07;99727.53;5188356;28;20061;-65
2022/05/23 08:15:31;;;;;;;4.47;1.73;;;20.70;89.00;;;21.31;53.20;99716.72;5188787;28;20050;-67
2022/05/23 08:18:04;;;;;;;2.42;2.13;;;20.80;87.90;;;21.42;52.96;99701.41;5187603;28;20061;-71
2022/05/23 08:20:38;;;;;;;3.92;2.10;;;20.90;87.90;;;21.36;52.95;99694.50;5174218;28;20125;-73
2022/05/23 08:23:12;;;;;;;4.22;1.90;;;20.90;87.70;;;21.31;53.51;99695.53;5168515;28;20484;-63
2022/05/23 08:25:44;;;;;;;4.13;2.10;;;20.90;88.20;;;21.35;53.72;99686.59;5161351;28;20057;-62
2022/05/23 08:28:16;;;;;;;3.55;2.00;;;20.90;88.30;;;21.46;53.73;99678.38;5175987;28;20049;-62
2022/05/23 08:30:48;;;;;;;4.75;1.75;;;21.00;88.50;;;21.48;54.03;99676.53;5175863;28;20048;-61
2022/05/23 08:33:20;;;;;;;4.78;2.28;;;21.00;88.80;;;21.57;53.91;99687.75;5168086;28;20058;-62
2022/05/23 08:35:52;;;;;;;3.65;1.88;;;21.10;88.90;;;21.65;54.31;99687.56;5168025;28;20407;-62
2022/05/23 08:38:25;;;;;;;3.55;2.00;;;21.10;89.40;;;21.83;53.93;99679.03;5167526;28;20054;-64
2022/05/23 08:41:10;;;;;;;4.25;2.20;;;21.20;89.20;;;21.99;54.20;99665.34;5176901;28;20410;-63
2022/05/23 08:43:52;;;;;;;5.45;2.13;;;21.40;89.70;;;22.19;53.29;99665.66;5167870;28;20054;-60
2022/05/23 08:46:31;;;;;;;3.05;1.90;;;21.60;88.90;;;22.38;53.13;99674.78;5166705;28;20046;-60
2022/05/23 08:49:07;;;;;;;3.55;2.05;;;21.70;88.70;;;22.64;52.28;99683.72;5176587;28;20050;-62
2022/05/23 08:51:45;;;;;;;4.25;1.88;;;21.90;87.80;;;23.04;50.26;99685.09;5181368;28;20570;-62
2022/05/23 08:54:26;;;;;;;3.85;1.83;;;22.10;85.70;;;23.26;49.76;99694.06;5167465;28;20105;-60
2022/05/23 08:57:03;;;;;;;2.53;1.83;;;22.30;84.80;;;23.35;48.59;99682.25;5168292;28;20047;-61
2022/05/23 08:59:42;;;;;;;3.65;1.85;;;22.40;82.80;;;23.42;47.85;99676.66;5173218;28;20105;-61
2022/05/23 09:02:20;;;;;;;3.15;1.98;;;22.50;81.50;;;23.44;47.62;99665.97;5178772;28;20450;-61
2022/05/23 09:04:59;;;;;;;4.03;1.70;;;22.60;81.00;;;23.39;47.94;99674.09;5187743;28;20050;-63
2022/05/23 09:07:38;;;;;;;3.00;1.80;;;22.60;81.00;;;23.91;47.38;99661.59;5187436;28;20056;-61
2022/05/23 09:10:18;;;;;;;11.63;2.20;;;22.80;80.90;;;24.20;46.63;99664.94;5187207;28;20557;-69
2022/05/23 09:12:53;;;;;;;3.13;1.90;;;23.10;80.20;;;24.17;46.48;99668.56;5186781;28;20054;-69
2022/05/23 09:15:25;;;;;;;4.97;2.00;;;23.20;79.30;;;24.16;46.40;99650.00;5163629;28;20076;-66
2022/05/23 09:18:02;;;;;;;2.38;2.13;;;23.20;78.80;;;24.22;45.67;99649.75;5164823;28;20415;-67
2022/05/23 09:20:41;;;;;;;2.95;1.70;;;23.30;77.80;;;25.07;45.05;99630.31;5187064;28;20053;-66
2022/05/23 09:23:23;;;;;;;2.65;1.60;;;23.70;78.00;;;25.79;43.11;99618.25;5187500;28;20473;-67
2022/05/23 09:25:58;;;;;;;3.28;2.00;;;24.30;76.10;;;25.99;42.30;99620.84;5187202;28;20408;-67
2022/05/23 09:28:35;;;;;;;1.70;1.40;;;24.70;73.70;;;26.54;41.63;99620.91;5175460;28;20066;-59
2022/05/23 09:31:18;;;;;;;2.25;1.60;;;25.20;72.90;;;26.86;41.08;99624.63;5166522;28;20046;-58
2022/05/23 09:33:52;;;;;;;3.75;1.92;;;25.50;71.90;;;26.54;40.90;99612.91;5166818;28;20081;-58
2022/05/23 09:36:29;;;;;;;4.00;1.90;;;25.50;70.90;;;26.13;41.74;99613.06;5166854;28;20061;-57
2022/05/23 09:39:06;;;;;;;3.58;2.10;;;25.30;70.40;;;25.79;42.49;99607.56;5166307;28;20050;-56
2022/05/23 09:50:30;;;;;;;4.45;1.60;;;24.30;73.30;;;24.39;46.10;99572.78;5166158;28;20050;-57
2022/05/23 09:53:03;;;;;;;4.20;1.92;;;23.90;74.40;;;24.26;46.99;99571.50;5166158;28;20054;-56
2022/05/23 09:55:37;;;;;;;2.42;1.83;;;23.70;76.00;;;24.26;47.35;99576.84;5166077;28;20118;-55
2022/05/23 09:58:12;;;;;;;4.43;1.80;;;23.70;76.50;;;24.34;47.81;99564.97;5166286;28;20050;-57
2022/05/23 10:01:04;;;;;;;2.60;1.70;;;23.70;77.30;;;24.72;47.17;99569.63;5151188;28;20052;-56
2022/05/23 10:03:48;;;;;;;2.58;1.58;;;23.90;77.30;;;25.02;47.00;99573.63;5146073;28;20138;-56
2022/05/23 10:06:21;;;;;;;3.55;1.88;;;24.10;77.10;;;25.11;45.74;99573.28;5145777;28;20061;-58
2022/05/23 10:08:53;;;;;;;5.60;1.88;;;24.30;75.30;;;25.21;46.05;99576.38;5145718;28;20065;-56
2022/05/23 10:11:29;;;;;;;2.15;1.45;;;24.40;75.80;;;25.34;46.06;99580.22;5145533;28;20049;-56
2022/05/23 10:14:06;;;;;;;2.72;1.85;;;24.50;75.70;;;25.41;45.44;99573.69;5145750;28;20055;-58
2022/05/23 10:16:46;;;;;;;3.90;1.80;;;24.60;75.90;;;25.28;45.56;99569.84;5145806;28;20555;-55
2022/05/23 10:19:31;;;;;;;2.15;1.52;;;24.50;74.50;;;25.36;45.13;99566.81;5145697;28;20061;-56
2022/05/23 10:22:20;;;;;;;2.25;1.30;;;24.60;74.30;;;25.42;45.44;99555.88;5145804;28;20137;-57
2022/05/23 10:24:57;;;;;;;3.08;1.60;;;24.60;74.80;;;25.46;46.19;99546.81;5145125;28;20055;-56
2022/05/23 10:27:42;;;;;;;2.28;1.25;;;24.70;75.40;;;25.58;46.23;99554.25;5145764;28;20054;-55
2022/05/23 10:30:19;;;;;;;2.17;1.40;;;24.80;75.80;;;25.93;45.73;99535.72;5145541;28;20051;-56
2022/05/23 10:33:01;;;;;;;1.58;1.48;;;25.00;75.30;;;26.05;44.57;99537.78;5145612;28;20404;-57
2022/05/23 10:35:39;;;;;;;2.38;1.40;;;25.20;74.10;;;26.10;44.74;99524.25;5145498;28;20057;-55
2022/05/23 10:44:16;;;;;;;2.45;1.48;;;25.20;74.70;;;25.97;46.11;99498.13;5145258;28;20057;-56
2022/05/23 10:47:03;;;;;;;5.07;1.80;;;25.20;75.20;;;26.10;45.57;99495.72;5145031;28;20047;-56
2022/05/23 10:49:46;;;;;;;4.63;1.95;;;25.20;74.70;;;26.26;44.86;99482.47;5173181;28;20053;-56
2022/05/23 10:52:27;;;;;;;3.20;1.70;;;25.40;74.30;;;26.28;44.82;99472.59;5185564;28;20471;-55
2022/05/23 10:55:09;;;;;;;2.88;1.40;;;25.50;73.80;;;26.41;45.24;99471.06;5185701;28;20050;-56
2022/05/23 10:58:06;;;;;;;3.50;2.00;;;25.60;74.50;;;26.67;44.75;99458.13;5185833;28;20450;-56
2022/05/23 11:00:50;;;;;;;3.22;1.60;;;25.70;74.10;;;26.65;44.84;99460.88;5185684;28;20046;-58
2022/05/23 11:03:33;;;;;;;2.92;1.67;;;25.80;73.80;;;26.66;45.00;99472.44;5185428;28;20096;-56
2022/05/23 11:06:16;;;;;;;2.22;1.73;;;25.90;73.80;;;26.80;45.27;99464.56;5185502;28;20478;-56
2022/05/23 11:09:04;;;;;;;2.78;1.60;;;26.00;74.50;;;26.91;45.24;99458.63;5185138;28;20145;-57
2022/05/23 11:14:23;;;;;;;2.88;1.80;;;26.20;74.60;;;27.27;45.08;99442.44;5135816;23;20046;-78
2022/05/23 11:17:09;;;;;;;3.72;1.80;;;26.40;74.40;;;27.30;45.11;99443.13;5173319;28;20053;-80
2022/05/23 11:20:09;;;;;;;3.42;1.73;;;26.50;74.10;;;27.08;44.72;99442.59;5203275;28;20056;-79
2022/05/23 11:22:43;;;;;;;;;;;26.40;73.20;;;26.56;45.99;99429.31;5193986;28;20056;-79
2022/05/23 11:25:28;;;;;;;3.22;1.90;;;26.00;74.30;;;26.33;47.47;99422.44;5192265;28;19921;-79
2022/05/23 11:34:03;;;;;;;4.20;1.80;;;25.40;76.00;;;25.91;48.34;99410.34;5193007;28;20108;-78
2022/05/23 11:36:56;;;;;;;2.83;1.73;;;25.30;76.90;;;25.89;48.71;99404.22;5196908;28;20590;-80
2022/05/23 11:39:47;;;;;;;3.22;1.90;;;25.20;77.50;;;25.71;49.33;99399.75;5194703;28;20056;-79
2022/05/23 11:42:30;;;;;;;3.80;1.80;;;25.20;78.10;;;25.56;49.92;99389.81;5195255;28;20510;-79
2022/05/23 11:48:58;;;;;;;3.00;1.90;;;24.90;78.80;;;25.42;50.62;99388.69;5193205;28;20056;-80
2022/05/23 11:51:41;;;;;;;3.58;1.70;;;24.90;80.10;;;25.41;50.51;99386.97;5092698;29;20104;-82
2022/05/23 11:54:37;;;;;;;4.93;1.83;;;24.80;79.90;;;25.25;50.53;99379.78;5106292;29;20052;-79
2022/05/23 11:57:36;;;;;;;3.35;1.80;;;24.70;79.90;;;25.06;52.23;99382.47;5178199;28;20042;-76
2022/05/23 12:00:33;;;;;;;3.65;1.95;;;24.60;82.20;;;24.93;52.73;99370.63;5200994;28;20065;-77